Time;durP1;ratioP1;P1;durP2;ratioP2;P2;SDS_P1;SDS_P2;PMS_P1;PMS_P2;Temp;Humidity;BMP_temperature;BMP_pressure;BME280_temperature;BME280_humidity;BME280_pressure;Samples;Min_cycle;Max_cycle;Signal;HPM_P1;HPM_P2
2021/10/02 00:45:43;;;;;;;11.40;8.00;;;;;;;5.04;82.68;98292.91;117260;1177;59552;-73
2021/10/02 00:48:13;;;;;;;13.00;9.00;;;;;;;5.04;82.92;98293.77;117180;1174;59520;-72
2021/10/02 00:50:46;;;;;;;13.40;8.50;;;;;;;5.00;82.94;98293.08;117226;1176;72649;-72
2021/10/02 00:53:16;;;;;;;13.40;9.00;;;;;;;4.97;82.99;98290.55;117275;1176;68257;-72
2021/10/02 00:55:45;;;;;;;12.00;9.00;;;;;;;4.93;83.11;98286.91;117203;1176;68480;-72
2021/10/02 00:58:16;;;;;;;14.80;9.10;;;;;;;4.84;83.10;98288.61;117296;1177;59504;-72
2021/10/02 01:00:48;;;;;;;12.20;8.10;;;;;;;4.77;82.45;98290.06;117304;1176;59533;-73
2021/10/02 01:03:24;;;;;;;15.30;10.20;;;;;;;4.70;82.82;98286.02;117272;1177;71353;-72
2021/10/02 01:06:14;;;;;;;12.00;8.70;;;;;;;4.63;83.53;98287.83;117256;1177;69302;-73
2021/10/02 01:09:03;;;;;;;12.60;9.30;;;;;;;4.58;83.90;98285.89;116991;1177;69233;-74
2021/10/02 01:11:51;;;;;;;7.60;4.90;;;;;;;4.52;83.53;98283.52;117189;1177;59505;-74
2021/10/02 01:14:41;;;;;;;13.40;8.20;;;;;;;4.48;82.98;98282.98;117022;1177;59532;-72
2021/10/02 01:17:40;;;;;;;12.70;8.80;;;;;;;4.43;82.97;98280.54;117160;1177;70504;-75
2021/10/02 01:20:27;;;;;;;12.70;7.80;;;;;;;4.41;83.32;98282.18;117209;1176;68741;-75
2021/10/02 01:23:40;;;;;;;9.90;7.40;;;;;;;4.40;84.18;98281.56;116967;1177;69466;-75
2021/10/02 01:26:28;;;;;;;9.80;6.90;;;;;;;4.40;83.96;98279.63;117153;1177;59529;-72
2021/10/02 01:29:01;;;;;;;12.20;8.60;;;;;;;4.45;83.03;98281.02;117314;1177;59461;-75
2021/10/02 01:31:36;;;;;;;11.90;8.00;;;;;;;4.41;83.95;98283.58;117110;1177;71396;-72
2021/10/02 01:34:17;;;;;;;7.20;5.70;;;;;;;4.40;83.09;98281.02;116993;1177;67534;-73
2021/10/02 01:37:20;;;;;;;15.00;10.00;;;;;;;4.38;83.87;98279.35;117259;1176;68492;-73
2021/10/02 01:48:24;;;;;;;10.10;7.60;;;;;;;4.40;81.96;98280.34;117403;1176;68964;-72
2021/10/02 01:50:55;;;;;;;10.20;6.70;;;;;;;4.45;82.12;98279.48;116973;1177;69736;-72
2021/10/02 01:53:33;;;;;;;11.30;7.60;;;;;;;4.45;82.16;98280.13;117059;1177;59500;-72
2021/10/02 01:56:10;;;;;;;9.70;6.30;;;;;;;4.44;82.25;98281.92;116989;1177;59604;-73
2021/10/02 01:58:40;;;;;;;9.10;6.60;;;;;;;4.36;82.36;98278.38;117360;1176;71043;-72
2021/10/02 02:01:11;;;;;;;8.40;5.90;;;;;;;4.30;82.20;98278.42;117353;1177;68277;-72
2021/10/02 02:03:44;;;;;;;11.80;7.60;;;;;;;4.26;81.76;98282.36;117101;1176;68247;-72
2021/10/02 02:06:15;;;;;;;10.70;7.60;;;;;;;4.21;82.28;98282.34;116994;1177;59882;-73
2021/10/02 02:08:46;;;;;;;11.50;8.10;;;;;;;4.17;83.00;98280.59;117209;1176;59535;-73
2021/10/02 02:11:26;;;;;;;;;;;;;;;4.14;83.14;98278.76;117183;1177;70902;-72
2021/10/02 02:13:59;;;;;;;10.20;6.80;;;;;;;4.15;82.19;98279.09;117275;1176;68470;-72
2021/10/02 02:16:31;;;;;;;10.80;8.10;;;;;;;4.13;83.30;98273.11;117269;1176;69054;-72
2021/10/02 02:19:01;;;;;;;13.40;8.00;;;;;;;4.13;83.96;98270.73;117275;1176;59535;-73
2021/10/02 02:21:31;;;;;;;11.50;7.30;;;;;;;4.14;83.74;98271.36;117175;1177;59488;-73
2021/10/02 02:24:01;;;;;;;11.00;7.30;;;;;;;4.16;83.31;98271.98;117431;1176;70557;-72
2021/10/02 02:26:31;;;;;;;10.90;7.80;;;;;;;4.17;83.25;98269.39;117275;1177;68403;-72
2021/10/02 02:29:02;;;;;;;7.50;5.30;;;;;;;4.17;82.61;98268.51;117190;1177;68260;-73
2021/10/02 02:31:33;;;;;;;11.10;7.30;;;;;;;4.16;82.53;98266.46;117224;1176;59508;-72
2021/10/02 02:34:03;;;;;;;14.50;8.60;;;;;;;4.13;83.59;98265.35;117218;1178;59513;-73
2021/10/02 02:36:34;;;;;;;12.80;8.00;;;;;;;4.12;83.44;98270.06;117276;1177;71387;-72
2021/10/02 02:39:04;;;;;;;8.10;6.40;;;;;;;4.11;83.14;98271.46;117258;1176;68393;-72
2021/10/02 02:41:34;;;;;;;7.80;6.10;;;;;;;4.11;82.00;98270.27;117303;1177;69231;-71
2021/10/02 02:44:04;;;;;;;9.20;5.50;;;;;;;4.09;81.85;98268.23;117229;1177;59483;-71
2021/10/02 02:46:38;;;;;;;8.20;4.70;;;;;;;4.07;81.49;98269.69;117242;1177;59535;-72
2021/10/02 02:49:34;;;;;;;6.80;4.60;;;;;;;4.06;81.11;98272.65;117372;1177;71397;-73
2021/10/02 02:52:31;;;;;;;5.70;3.90;;;;;;;4.05;80.78;98269.41;117293;1176;69241;-71
2021/10/02 02:55:09;;;;;;;8.30;5.40;;;;;;;4.06;80.39;98271.78;117157;1177;68439;-72
2021/10/02 02:57:43;;;;;;;10.80;6.90;;;;;;;4.07;80.62;98270.55;117351;1176;59597;-73
2021/10/02 03:00:17;;;;;;;12.40;8.60;;;;;;;4.06;80.81;98266.96;117310;1176;59461;-73
2021/10/02 03:02:52;;;;;;;12.40;7.20;;;;;;;4.02;81.22;98268.47;117372;1176;71371;-72
2021/10/02 03:05:26;;;;;;;8.80;6.60;;;;;;;3.98;81.46;98265.49;117300;1177;69208;-72
2021/10/02 03:08:01;;;;;;;11.30;7.60;;;;;;;3.91;82.21;98261.41;117253;1176;68746;-72
2021/10/02 03:10:31;;;;;;;10.30;6.70;;;;;;;3.86;82.24;98259.70;117020;1177;59545;-72
2021/10/02 03:13:11;;;;;;;10.70;6.60;;;;;;;3.86;81.61;98256.06;117087;1177;59532;-72
2021/10/02 03:15:46;;;;;;;8.50;6.20;;;;;;;3.86;81.91;98254.33;117248;1177;71359;-72
2021/10/02 03:18:18;;;;;;;11.70;7.30;;;;;;;3.89;82.17;98256.48;117173;1176;69213;-73
2021/10/02 03:20:56;;;;;;;11.50;7.60;;;;;;;3.87;82.09;98252.91;117251;1177;69262;-72
2021/10/02 03:23:27;;;;;;;10.90;6.90;;;;;;;3.90;82.32;98251.98;117225;1177;59465;-72
2021/10/02 03:25:56;;;;;;;11.50;6.90;;;;;;;3.91;82.33;98252.44;117329;1177;59599;-72
2021/10/02 03:28:29;;;;;;;8.40;5.20;;;;;;;3.88;82.08;98250.48;117287;1176;72652;-71
2021/10/02 03:30:59;;;;;;;12.20;8.60;;;;;;;3.84;82.38;98247.84;117333;1177;69395;-71
2021/10/02 03:33:30;;;;;;;9.20;6.60;;;;;;;3.80;82.48;98248.31;117284;1177;69108;-72
2021/10/02 03:36:00;;;;;;;8.80;5.90;;;;;;;3.77;81.66;98247.36;117235;1176;59517;-71
2021/10/02 03:38:31;;;;;;;9.50;6.50;;;;;;;3.77;81.48;98247.38;117242;1177;59499;-72
2021/10/02 03:41:02;;;;;;;7.50;4.90;;;;;;;3.74;81.68;98248.17;117329;1176;70850;-72
2021/10/02 03:43:34;;;;;;;8.70;6.40;;;;;;;3.70;81.65;98249.00;117323;1175;68417;-73
2021/10/02 03:46:05;;;;;;;6.40;3.80;;;;;;;3.67;81.54;98252.38;117325;1177;69258;-71
2021/10/02 03:48:34;;;;;;;;;;;;;;;3.64;81.08;98254.17;117226;1177;59556;-71
2021/10/02 03:51:04;;;;;;;7.60;5.30;;;;;;;3.64;81.08;98257.46;117229;1176;59495;-71
2021/10/02 03:53:34;;;;;;;7.60;5.10;;;;;;;3.61;80.99;98258.77;117235;1177;71188;-72
2021/10/02 03:56:04;;;;;;;;;;;;;;;3.62;81.34;98258.40;117132;1177;70492;-72
2021/10/02 03:58:34;;;;;;;8.70;6.10;;;;;;;3.63;81.77;98258.69;117261;1177;68446;-72
2021/10/02 04:01:04;;;;;;;8.00;5.90;;;;;;;3.63;81.88;98255.59;117164;1176;59516;-73
2021/10/02 04:03:34;;;;;;;10.60;7.40;;;;;;;3.58;81.67;98256.25;117357;1174;59629;-71
2021/10/02 04:06:03;;;;;;;9.70;6.20;;;;;;;3.54;82.59;98254.98;117026;1177;71344;-73
2021/10/02 04:08:33;;;;;;;9.10;6.50;;;;;;;3.51;82.74;98253.54;117214;1177;69133;-72
2021/10/02 04:11:04;;;;;;;11.30;7.90;;;;;;;3.48;82.55;98258.48;117222;1177;68378;-70
2021/10/02 04:13:33;;;;;;;12.60;8.50;;;;;;;3.47;82.30;98256.95;117280;1177;59513;-72
2021/10/02 04:16:03;;;;;;;9.10;6.60;;;;;;;3.48;82.10;98258.65;117187;1176;59526;-72
2021/10/02 04:18:33;;;;;;;7.10;4.90;;;;;;;3.50;81.42;98261.33;117359;1177;70420;-72
2021/10/02 04:21:03;;;;;;;8.50;6.30;;;;;;;3.51;81.17;98263.70;117320;1175;69315;-73
2021/10/02 04:23:32;;;;;;;11.00;7.00;;;;;;;3.54;81.27;98264.14;117065;1177;69254;-71
2021/10/02 04:26:01;;;;;;;9.80;6.10;;;;;;;3.58;81.19;98269.54;117312;1175;59510;-72
2021/10/02 04:28:31;;;;;;;12.40;7.90;;;;;;;3.60;81.19;98274.64;117343;1177;59551;-72
2021/10/02 04:31:03;;;;;;;9.50;6.40;;;;;;;3.60;82.15;98272.23;117220;1176;71820;-72
2021/10/02 04:33:32;;;;;;;6.60;4.40;;;;;;;3.59;81.48;98271.56;117048;1177;69062;-71
2021/10/02 04:36:03;;;;;;;7.90;5.90;;;;;;;3.61;80.49;98272.56;117309;1176;68947;-71
2021/10/02 04:38:32;;;;;;;8.00;6.00;;;;;;;3.62;80.41;98271.34;117301;1176;59529;-73
2021/10/02 04:41:02;;;;;;;8.90;5.70;;;;;;;3.65;80.51;98269.67;116939;1177;59545;-69
2021/10/02 04:43:33;;;;;;;7.70;5.10;;;;;;;3.71;80.62;98273.12;117037;1177;69589;-72
2021/10/02 04:46:03;;;;;;;6.90;5.40;;;;;;;3.72;80.75;98273.22;117085;1177;69237;-72
2021/10/02 04:48:32;;;;;;;7.60;5.40;;;;;;;3.74;80.81;98272.66;117118;1177;69356;-72
2021/10/02 04:51:01;;;;;;;7.00;5.30;;;;;;;3.81;80.59;98273.11;117363;1177;59532;-71
2021/10/02 04:53:31;;;;;;;12.30;7.30;;;;;;;3.99;80.77;98271.16;117215;1177;59532;-72
2021/10/02 04:56:01;;;;;;;6.40;4.50;;;;;;;4.14;80.92;98274.64;117006;1177;71594;-71
2021/10/02 04:58:30;;;;;;;;;;;;;;;4.25;79.85;98276.53;117238;1177;69219;-72
2021/10/02 05:00:59;;;;;;;6.50;4.30;;;;;;;4.33;79.86;98275.22;117274;1177;67328;-71
2021/10/02 05:03:28;;;;;;;8.10;5.50;;;;;;;4.51;80.05;98274.94;117334;1178;59529;-71
2021/10/02 05:05:58;;;;;;;8.30;6.20;;;;;;;4.82;79.47;98272.97;117385;1177;59510;-71
2021/10/02 05:08:27;;;;;;;7.90;5.50;;;;;;;5.15;78.49;98273.68;117344;1176;70573;-72
2021/10/02 05:10:56;;;;;;;7.00;5.20;;;;;;;5.48;78.11;98270.87;117216;1176;68494;-73
2021/10/02 05:13:26;;;;;;;7.30;5.10;;;;;;;5.85;77.52;98271.33;117240;1177;68583;-72
2021/10/02 05:15:55;;;;;;;9.30;5.50;;;;;;;6.22;76.50;98271.91;117220;1177;59535;-71
2021/10/02 05:18:24;;;;;;;7.50;5.50;;;;;;;6.52;74.96;98273.08;117321;1177;59524;-72
2021/10/02 05:20:53;;;;;;;8.40;6.50;;;;;;;6.75;74.41;98276.91;117363;1177;70589;-71
2021/10/02 05:23:23;;;;;;;8.00;5.50;;;;;;;6.99;73.69;98276.38;117175;1177;68453;-71
2021/10/02 05:25:54;;;;;;;6.90;5.80;;;;;;;7.31;73.13;98278.92;117381;1167;69256;-74
2021/10/02 05:28:24;;;;;;;7.10;4.90;;;;;;;7.77;72.37;98278.69;117416;1174;59510;-72
2021/10/02 05:30:53;;;;;;;7.30;5.00;;;;;;;8.27;71.23;98279.55;117437;1176;59606;-73
2021/10/02 05:33:22;;;;;;;7.40;5.10;;;;;;;8.73;70.03;98277.08;117181;1177;72085;-73
2021/10/02 05:35:51;;;;;;;7.50;5.90;;;;;;;9.16;69.51;98280.24;117323;1177;69337;-73
2021/10/02 05:38:21;;;;;;;12.20;8.20;;;;;;;9.56;66.28;98281.88;117371;1177;69037;-74
2021/10/02 05:40:50;;;;;;;13.00;8.40;;;;;;;9.80;60.28;98279.35;117354;1177;59526;-74
2021/10/02 05:43:19;;;;;;;14.00;9.30;;;;;;;9.91;59.76;98278.52;117345;1176;59509;-73
2021/10/02 05:45:48;;;;;;;17.90;10.90;;;;;;;9.87;59.22;98281.91;117351;1176;70580;-73
2021/10/02 05:48:17;;;;;;;12.20;9.50;;;;;;;9.91;59.26;98283.95;117092;1177;68453;-72
2021/10/02 05:50:46;;;;;;;15.50;11.00;;;;;;;10.00;59.51;98282.70;117367;1176;68530;-75
2021/10/02 05:53:15;;;;;;;16.10;12.10;;;;;;;9.98;59.03;98285.98;117247;1176;59530;-72
2021/10/02 05:55:44;;;;;;;12.10;8.70;;;;;;;10.16;58.97;98285.31;117206;1173;59529;-73
2021/10/02 05:58:13;;;;;;;14.50;9.40;;;;;;;10.51;60.70;98290.10;117348;1176;69560;-73
2021/10/02 06:00:42;;;;;;;16.10;11.50;;;;;;;10.93;59.98;98293.17;117343;1177;68826;-73
2021/10/02 06:03:11;;;;;;;17.20;11.40;;;;;;;11.25;58.74;98294.40;117388;1176;68448;-72
2021/10/02 06:05:40;;;;;;;16.60;11.10;;;;;;;11.46;58.86;98292.23;117372;1177;59537;-73
2021/10/02 06:08:09;;;;;;;15.10;12.00;;;;;;;11.71;60.22;98289.78;117231;1176;59556;-72
2021/10/02 06:10:38;;;;;;;10.90;8.00;;;;;;;11.88;59.67;98286.44;117429;1176;70224;-72
2021/10/02 06:13:07;;;;;;;12.70;8.90;;;;;;;12.14;59.18;98283.88;117280;1177;68178;-72
2021/10/02 06:15:36;;;;;;;18.70;11.40;;;;;;;12.61;57.99;98284.57;117164;1177;69359;-72
2021/10/02 06:18:05;;;;;;;18.50;9.10;;;;;;;12.94;56.15;98284.10;116989;1177;59513;-73
2021/10/02 06:20:34;;;;;;;32.10;16.90;;;;;;;13.37;54.73;98286.08;116933;1177;59484;-72
2021/10/02 06:23:04;;;;;;;29.10;14.60;;;;;;;13.58;53.35;98285.48;117021;1177;70222;-74
2021/10/02 06:25:33;;;;;;;;;;;;;;;13.76;53.44;98283.85;117132;1176;68241;-71
2021/10/02 06:28:03;;;;;;;30.40;13.90;;;;;;;14.00;53.06;98287.83;117345;1176;68416;-71
2021/10/02 06:30:31;;;;;;;25.40;12.90;;;;;;;14.54;53.38;98289.50;117253;1177;59530;-72
2021/10/02 06:33:01;;;;;;;16.60;10.20;;;;;;;14.93;48.43;98291.83;117267;1177;59459;-72
2021/10/02 06:35:30;;;;;;;14.50;10.40;;;;;;;15.25;47.37;98293.39;117217;1177;70563;-73
2021/10/02 06:37:59;;;;;;;11.70;8.50;;;;;;;15.46;46.43;98290.13;117362;1177;69204;-72
2021/10/02 06:40:28;;;;;;;12.60;8.00;;;;;;;15.46;45.06;98290.81;117145;1177;69308;-72
2021/10/02 06:42:56;;;;;;;11.90;8.50;;;;;;;15.28;45.70;98292.95;117278;1176;59548;-72
2021/10/02 06:45:25;;;;;;;12.80;7.80;;;;;;;14.41;47.18;98293.08;117338;1177;59510;-71
2021/10/02 06:47:54;;;;;;;9.60;8.30;;;;;;;14.20;47.80;98288.14;117280;1177;71388;-72
2021/10/02 06:50:24;;;;;;;11.50;8.10;;;;;;;14.37;48.56;98290.23;117069;1177;68502;-72
2021/10/02 06:52:54;;;;;;;9.90;6.20;;;;;;;14.43;48.89;98295.02;117123;1176;69407;-71
2021/10/02 06:55:24;;;;;;;12.20;6.10;;;;;;;14.82;47.51;98297.19;117102;1177;60353;-72
2021/10/02 06:57:53;;;;;;;10.20;7.10;;;;;;;14.53;47.42;98291.52;117169;1177;59590;-72
2021/10/02 07:00:22;;;;;;;7.30;5.70;;;;;;;14.56;46.50;98294.06;116926;1177;71504;-72
2021/10/02 07:02:51;;;;;;;9.40;6.20;;;;;;;14.55;46.87;98291.67;117298;1176;68278;-73
2021/10/02 07:05:20;;;;;;;7.50;5.20;;;;;;;14.84;45.42;98286.90;117168;1177;69287;-73
2021/10/02 07:07:49;;;;;;;10.80;6.50;;;;;;;15.08;45.60;98290.09;117060;1177;59548;-73
2021/10/02 07:10:20;;;;;;;8.40;5.70;;;;;;;15.56;44.57;98284.60;117204;1177;59513;-72
2021/10/02 07:12:52;;;;;;;10.60;6.60;;;;;;;15.69;42.71;98280.10;117239;1177;70411;-72
2021/10/02 07:15:21;;;;;;;6.50;4.80;;;;;;;16.12;42.12;98279.61;117038;1178;69390;-75
2021/10/02 07:17:50;;;;;;;6.40;5.50;;;;;;;16.65;40.57;98276.92;117197;1177;69290;-72
2021/10/02 07:20:22;;;;;;;7.50;5.50;;;;;;;16.96;39.18;98278.40;117169;1176;59513;-72
2021/10/02 07:22:51;;;;;;;8.50;5.20;;;;;;;16.97;38.09;98280.81;117220;1176;59543;-72
2021/10/02 07:25:25;;;;;;;6.30;4.90;;;;;;;16.89;39.50;98279.89;117213;1176;71579;-72
2021/10/02 07:27:54;;;;;;;8.80;5.40;;;;;;;16.92;38.55;98278.41;117249;1176;68365;-71
2021/10/02 07:30:23;;;;;;;6.40;5.00;;;;;;;16.70;38.13;98274.98;117005;1177;70017;-71
2021/10/02 07:32:52;;;;;;;11.20;6.10;;;;;;;16.76;38.50;98273.45;117015;1176;59942;-72
2021/10/02 07:35:21;;;;;;;6.10;5.20;;;;;;;16.82;38.82;98269.17;117212;1177;60510;-72
2021/10/02 07:37:51;;;;;;;6.80;4.60;;;;;;;16.96;37.97;98272.80;117230;1176;71150;-73
2021/10/02 07:40:20;;;;;;;5.40;4.00;;;;;;;17.59;38.62;98269.77;117238;1177;69431;-73
2021/10/02 07:42:52;;;;;;;6.80;4.40;;;;;;;18.20;35.09;98270.34;117162;1177;69302;-72
2021/10/02 07:45:23;;;;;;;7.70;4.10;;;;;;;18.16;35.69;98268.25;117197;1176;59520;-71
2021/10/02 07:47:54;;;;;;;7.00;3.50;;;;;;;18.83;34.73;98267.41;117402;1177;59542;-72
2021/10/02 07:50:24;;;;;;;5.00;4.50;;;;;;;19.10;33.81;98261.58;117019;1177;70818;-72
2021/10/02 07:52:56;;;;;;;6.60;4.70;;;;;;;18.84;33.37;98259.36;117209;1177;69793;-75
2021/10/02 07:55:26;;;;;;;6.00;4.50;;;;;;;18.50;33.62;98262.16;117444;1177;69418;-73
2021/10/02 07:57:56;;;;;;;5.60;3.90;;;;;;;18.06;34.22;98257.90;117218;1177;59536;-72
2021/10/02 08:00:25;;;;;;;6.10;3.30;;;;;;;18.64;34.73;98257.19;116997;1177;60704;-72
2021/10/02 08:02:55;;;;;;;6.40;4.30;;;;;;;19.34;34.67;98259.27;117120;1176;71524;-75
2021/10/02 08:05:25;;;;;;;4.90;3.80;;;;;;;19.94;32.59;98251.73;117190;1176;69338;-73
2021/10/02 08:07:54;;;;;;;4.00;3.50;;;;;;;20.72;30.60;98251.58;117209;1176;69291;-72
2021/10/02 08:10:28;;;;;;;5.50;4.40;;;;;;;21.05;30.17;98251.05;117184;1177;59494;-72
2021/10/02 08:12:58;;;;;;;4.90;3.50;;;;;;;20.52;28.52;98250.20;117211;1177;59487;-72
2021/10/02 08:15:27;;;;;;;5.30;3.50;;;;;;;21.10;29.50;98249.98;117255;1176;71358;-73
2021/10/02 08:17:57;;;;;;;5.10;4.00;;;;;;;21.56;27.84;98248.39;117224;1177;69785;-75
2021/10/02 08:20:28;;;;;;;4.50;3.40;;;;;;;21.46;26.70;98249.67;117254;1177;69381;-71
2021/10/02 08:22:58;;;;;;;4.90;3.70;;;;;;;21.66;26.47;98249.36;117090;1177;59525;-73
2021/10/02 08:25:30;;;;;;;4.40;4.00;;;;;;;21.56;26.95;98246.16;117252;1177;59521;-75
2021/10/02 08:28:03;;;;;;;5.70;3.50;;;;;;;21.87;26.54;98242.67;117161;1177;71427;-73
2021/10/02 08:30:33;;;;;;;5.70;3.80;;;;;;;21.49;25.60;98242.98;117223;1177;68345;-75
2021/10/02 08:33:02;;;;;;;5.60;3.70;;;;;;;20.70;27.56;98239.94;117195;1174;69308;-74
2021/10/02 08:35:31;;;;;;;4.70;4.00;;;;;;;21.52;26.50;98236.95;117204;1176;59487;-73
2021/10/02 08:38:00;;;;;;;4.40;3.20;;;;;;;21.21;26.48;98232.60;117164;1177;59534;-75
2021/10/02 08:40:29;;;;;;;6.20;4.20;;;;;;;20.87;27.42;98230.21;117003;1174;71308;-72
2021/10/02 08:42:59;;;;;;;4.50;3.10;;;;;;;21.01;27.57;98222.95;117084;1177;69244;-73
2021/10/02 08:45:30;;;;;;;6.20;3.50;;;;;;;21.75;26.58;98224.49;116961;1177;69111;-72
2021/10/02 08:47:59;;;;;;;4.50;3.30;;;;;;;22.29;26.57;98219.39;117158;1177;59472;-71
2021/10/02 08:50:28;;;;;;;5.80;3.80;;;;;;;22.72;25.90;98220.55;117204;1176;59528;-72
2021/10/02 08:52:58;;;;;;;3.30;2.60;;;;;;;22.91;26.64;98222.56;117159;1176;71403;-73
2021/10/02 08:55:28;;;;;;;4.10;3.00;;;;;;;23.68;24.91;98221.97;117248;1176;69379;-74
2021/10/02 08:57:57;;;;;;;4.70;3.80;;;;;;;23.92;23.90;98217.38;117249;1177;68485;-73
2021/10/02 09:00:26;;;;;;;5.80;3.60;;;;;;;24.13;23.84;98216.03;117004;1173;59526;-73
2021/10/02 09:02:56;;;;;;;3.30;2.90;;;;;;;24.21;23.86;98210.70;117211;1177;59599;-73
2021/10/02 09:05:27;;;;;;;5.80;3.60;;;;;;;24.41;23.06;98211.86;117253;1178;70771;-75
2021/10/02 09:07:59;;;;;;;4.20;3.00;;;;;;;24.36;23.48;98203.71;117193;1176;68491;-76
2021/10/02 09:10:32;;;;;;;4.20;3.20;;;;;;;24.57;23.13;98198.14;117229;1177;69572;-73
2021/10/02 09:13:02;;;;;;;3.80;2.80;;;;;;;24.59;22.58;98198.14;117245;1177;59491;-75
2021/10/02 09:15:31;;;;;;;3.70;3.10;;;;;;;24.76;21.56;98194.05;117277;1176;59529;-73
2021/10/02 09:18:01;;;;;;;3.60;2.80;;;;;;;25.12;21.49;98195.26;117257;1176;71228;-71
2021/10/02 09:20:30;;;;;;;;;;;;;;;25.09;21.62;98192.78;117200;1177;68649;-73
2021/10/02 09:23:02;;;;;;;4.50;3.10;;;;;;;25.32;21.00;98192.48;117310;1176;68557;-74
2021/10/02 09:25:34;;;;;;;3.20;2.80;;;;;;;25.32;21.81;98188.52;117046;1177;59508;-74
2021/10/02 09:28:12;;;;;;;3.60;2.90;;;;;;;25.54;21.42;98186.63;117034;1177;59468;-75
2021/10/02 09:30:44;;;;;;;4.60;3.40;;;;;;;25.72;21.44;98180.41;117273;1177;70407;-73
2021/10/02 09:33:20;;;;;;;2.80;2.30;;;;;;;25.87;21.31;98174.55;116964;1177;68586;-74
2021/10/02 09:35:51;;;;;;;6.70;3.40;;;;;;;25.98;19.82;98172.58;117250;1177;69222;-75
2021/10/02 09:38:21;;;;;;;3.70;3.00;;;;;;;25.91;20.08;98168.63;117149;1177;59495;-74
2021/10/02 09:40:55;;;;;;;5.30;3.20;;;;;;;26.21;19.17;98169.36;117363;1175;59548;-74
2021/10/02 09:43:25;;;;;;;3.40;2.60;;;;;;;26.07;19.26;98161.71;117295;1177;70946;-74
2021/10/02 09:45:55;;;;;;;5.00;3.30;;;;;;;26.13;18.37;98160.14;117280;1173;69819;-76
2021/10/02 09:48:29;;;;;;;4.90;2.70;;;;;;;25.71;19.33;98154.33;117294;1175;68697;-74
2021/10/02 09:51:08;;;;;;;4.90;2.80;;;;;;;25.98;19.41;98154.77;117351;1173;59540;-74
2021/10/02 09:53:42;;;;;;;4.80;2.40;;;;;;;25.55;19.09;98154.14;117254;1177;59462;-74
2021/10/02 09:56:14;;;;;;;2.70;2.20;;;;;;;25.68;18.50;98153.98;117298;1177;70698;-73
2021/10/02 09:58:46;;;;;;;3.00;2.60;;;;;;;25.00;19.48;98153.59;117391;1175;68740;-76
2021/10/02 10:01:23;;;;;;;4.20;2.60;;;;;;;24.93;19.34;98154.17;117129;1177;69291;-74
2021/10/02 10:03:53;;;;;;;3.80;2.30;;;;;;;25.10;18.73;98147.98;117138;1177;59523;-77
2021/10/02 10:06:25;;;;;;;3.70;2.60;;;;;;;24.83;19.15;98149.41;117020;1177;59613;-74
2021/10/02 10:09:26;;;;;;;4.20;2.70;;;;;;;25.19;19.03;98148.18;117195;1177;70789;-74
2021/10/02 10:11:56;;;;;;;4.70;3.10;;;;;;;25.59;19.37;98142.80;116546;1181;69215;-77
2021/10/02 10:14:27;;;;;;;3.90;2.20;;;;;;;25.72;18.78;98136.41;116543;1179;68732;-74
2021/10/02 10:16:57;;;;;;;3.40;2.10;;;;;;;26.14;18.55;98140.42;116518;1181;59581;-74
2021/10/02 10:19:31;;;;;;;3.60;2.40;;;;;;;26.80;17.78;98133.05;116494;1179;59712;-74
2021/10/02 10:22:14;;;;;;;4.00;2.60;;;;;;;27.32;17.07;98128.17;116703;1179;71484;-74
2021/10/02 10:24:54;;;;;;;4.40;2.30;;;;;;;27.61;16.91;98121.16;116544;1179;69409;-75
2021/10/02 10:27:39;;;;;;;3.30;1.90;;;;;;;27.13;16.97;98127.09;116478;1180;69267;-74
2021/10/02 10:30:18;;;;;;;2.90;2.40;;;;;;;27.02;16.70;98125.30;116539;1179;59507;-74
2021/10/02 10:33:04;;;;;;;3.80;2.30;;;;;;;26.80;17.09;98125.86;116495;1180;59491;-73
2021/10/02 10:35:39;;;;;;;4.40;2.90;;;;;;;26.25;17.38;98114.38;116523;1179;70533;-74
2021/10/02 10:38:12;;;;;;;3.70;2.70;;;;;;;26.10;17.67;98111.96;116547;1180;67667;-75
2021/10/02 10:40:42;;;;;;;2.90;2.40;;;;;;;26.86;18.00;98107.11;116540;1180;68332;-74
2021/10/02 10:43:11;;;;;;;3.20;2.10;;;;;;;27.29;16.96;98102.64;116532;1180;59551;-74
2021/10/02 10:45:41;;;;;;;4.60;2.60;;;;;;;27.62;16.58;98100.08;116674;1180;59523;-75
2021/10/02 10:48:11;;;;;;;2.70;2.20;;;;;;;27.69;16.19;98098.98;117070;1177;71362;-75
2021/10/02 10:50:44;;;;;;;3.80;2.50;;;;;;;28.12;16.31;98097.85;117360;1175;68515;-74
2021/10/02 10:53:14;;;;;;;2.50;2.00;;;;;;;28.72;15.75;98090.48;117265;1176;68504;-75
2021/10/02 10:55:55;;;;;;;3.50;2.30;;;;;;;29.55;15.47;98088.27;117313;1175;59529;-75
2021/10/02 10:58:29;;;;;;;3.70;2.40;;;;;;;30.22;14.88;98086.02;117264;1177;59509;-75
2021/10/02 11:01:01;;;;;;;4.10;2.00;;;;;;;30.41;13.56;98083.61;117383;1175;71541;-75
2021/10/02 11:03:44;;;;;;;3.40;2.70;;;;;;;29.91;14.04;98079.63;117384;1175;68552;-74
2021/10/02 11:06:17;;;;;;;4.10;2.10;;;;;;;29.61;15.35;98071.90;117274;1177;69184;-75
2021/10/02 11:09:07;;;;;;;3.70;2.30;;;;;;;29.94;14.51;98071.48;117273;1176;59962;-75
2021/10/02 11:11:51;;;;;;;3.00;2.10;;;;;;;30.32;14.28;98070.88;117287;1177;59526;-74
2021/10/02 11:14:24;;;;;;;3.30;2.10;;;;;;;30.52;14.11;98068.36;117340;1176;70834;-75
2021/10/02 11:17:02;;;;;;;3.80;2.10;;;;;;;30.70;13.28;98064.50;117365;1177;69329;-76
2021/10/02 11:19:37;;;;;;;3.50;2.60;;;;;;;30.82;13.45;98064.96;117316;1177;69362;-76
2021/10/02 11:23:17;;;;;;;3.20;2.20;;;;;;;30.76;13.41;98062.60;117355;1177;59532;-77
2021/10/02 11:25:40;;;;;;;3.00;2.20;;;;;;;30.95;13.29;98054.41;117249;1176;59535;-76
2021/10/02 11:28:26;;;;;;;4.70;2.20;;;;;;;31.27;13.70;98050.14;117181;1177;73065;-75
2021/10/02 11:30:56;;;;;;;2.70;2.00;;;;;;;31.48;12.85;98047.86;117315;1176;68954;-75
2021/10/02 11:33:41;;;;;;;3.40;2.20;;;;;;;31.26;13.04;98049.01;117263;1174;69833;-75
2021/10/02 11:36:31;;;;;;;3.60;1.90;;;;;;;30.91;13.15;98054.09;117236;1177;59510;-75
2021/10/02 11:39:12;;;;;;;2.50;1.70;;;;;;;30.61;13.27;98055.16;117307;1177;59468;-76
2021/10/02 11:41:45;;;;;;;2.90;2.10;;;;;;;30.82;13.11;98047.85;117244;1177;70671;-75
2021/10/02 11:44:36;;;;;;;2.20;1.60;;;;;;;30.97;13.52;98043.84;117185;1177;69705;-76
2021/10/02 11:47:25;;;;;;;2.90;2.20;;;;;;;31.07;12.94;98043.44;117236;1177;68554;-77
2021/10/02 11:50:07;;;;;;;3.10;2.00;;;;;;;29.76;13.72;98037.58;117180;1177;59616;-75
2021/10/02 11:52:46;;;;;;;4.20;2.00;;;;;;;29.81;14.15;98039.12;117021;1177;59518;-77
2021/10/02 11:55:33;;;;;;;2.90;2.10;;;;;;;30.19;14.19;98042.81;117280;1176;70638;-75
2021/10/02 11:58:11;;;;;;;4.70;2.70;;;;;;;30.09;13.87;98038.89;117357;1177;68282;-76
2021/10/02 12:01:00;;;;;;;2.40;1.80;;;;;;;29.19;14.56;98031.27;117322;1177;68537;-75
2021/10/02 12:03:33;;;;;;;2.50;1.90;;;;;;;29.81;13.81;98028.80;117261;1177;59536;-75
2021/10/02 12:06:04;;;;;;;3.70;2.10;;;;;;;29.33;14.13;98033.23;117158;1174;59465;-75
2021/10/02 12:08:34;;;;;;;4.20;2.10;;;;;;;28.82;14.98;98029.45;117265;1177;71378;-76
2021/10/02 12:11:09;;;;;;;2.60;1.80;;;;;;;28.94;14.82;98029.63;117219;1176;68333;-76
2021/10/02 12:13:49;;;;;;;3.10;2.10;;;;;;;29.37;14.66;98027.50;117010;1177;68520;-75
2021/10/02 12:16:27;;;;;;;2.70;1.60;;;;;;;30.09;14.04;98026.65;117069;1177;59540;-75
2021/10/02 12:19:11;;;;;;;2.30;1.70;;;;;;;30.69;13.85;98022.91;117370;1176;59961;-76
2021/10/02 12:21:52;;;;;;;4.00;2.30;;;;;;;31.08;13.32;98023.85;117342;1177;70714;-76
2021/10/02 12:24:24;;;;;;;3.30;1.90;;;;;;;30.31;13.97;98021.41;117349;1177;69037;-76
2021/10/02 12:27:04;;;;;;;4.00;2.20;;;;;;;31.15;13.71;98018.70;117356;1177;69055;-75
2021/10/02 12:29:37;;;;;;;3.40;2.00;;;;;;;31.31;13.30;98015.93;117342;1177;59510;-76
2021/10/02 12:32:09;;;;;;;3.30;2.20;;;;;;;31.25;13.08;98018.56;117206;1177;59529;-76
2021/10/02 12:34:42;;;;;;;3.30;2.20;;;;;;;30.31;13.82;98015.80;117046;1177;70652;-79
2021/10/02 12:37:13;;;;;;;3.70;2.00;;;;;;;30.07;14.37;98013.73;117292;1177;69136;-75
2021/10/02 12:39:42;;;;;;;3.10;2.00;;;;;;;28.99;15.20;98010.29;116974;1177;69274;-76
2021/10/02 12:42:14;;;;;;;2.70;1.80;;;;;;;28.89;15.28;98010.09;117258;1177;60986;-75
2021/10/02 12:44:49;;;;;;;2.60;1.80;;;;;;;29.14;14.95;98009.23;117379;1177;59481;-78
2021/10/02 12:47:27;;;;;;;2.80;1.90;;;;;;;29.64;14.46;98006.92;116966;1177;71441;-76